Time;durP1;ratioP1;P1;durP2;ratioP2;P2;SDS_P1;SDS_P2;PMS_P1;PMS_P2;Temp;Humidity;BMP_temperature;BMP_pressure;BME280_temperature;BME280_humidity;BME280_pressure;Samples;Min_cycle;Max_cycle;Signal;HPM_P1;HPM_P2
2022/03/10 05:02:34;;;;;;;11.35;7.05;;;0.30;99.90;;;;;;4952145;23;20245;-68
2022/03/10 05:05:01;;;;;;;10.20;8.10;;;0.30;99.90;;;;;;4912912;29;20211;-67
2022/03/10 05:07:28;;;;;;;10.60;7.32;;;0.30;99.90;;;;;;4931056;29;20222;-68
2022/03/10 05:09:54;;;;;;;10.18;7.43;;;0.30;99.90;;;;;;4931443;29;20318;-67
2022/03/10 05:12:21;;;;;;;13.88;8.32;;;0.30;99.90;;;;;;4914610;29;20711;-68
2022/03/10 05:14:48;;;;;;;11.98;6.95;;;0.30;99.90;;;;;;4912846;29;20207;-68
2022/03/10 05:17:14;;;;;;;9.85;7.90;;;0.20;99.90;;;;;;4912695;29;20206;-67
2022/03/10 05:19:42;;;;;;;12.68;8.05;;;0.30;99.90;;;;;;4912286;29;20209;-68
2022/03/10 05:22:09;;;;;;;10.65;7.63;;;0.30;99.90;;;;;;4912699;29;20226;-68
2022/03/10 05:24:36;;;;;;;14.23;8.73;;;0.30;99.90;;;;;;4894011;29;20282;-68
2022/03/10 05:27:03;;;;;;;8.82;7.43;;;0.20;99.90;;;;;;4900435;29;20211;-67
2022/03/10 05:29:30;;;;;;;13.18;8.52;;;0.20;99.90;;;;;;4912748;29;20214;-67
2022/03/10 05:31:57;;;;;;;10.35;9.15;;;0.20;99.90;;;;;;4912030;29;20226;-67
2022/03/10 05:34:23;;;;;;;10.50;8.02;;;0.20;99.90;;;;;;4895271;29;20707;-68
2022/03/10 05:36:51;;;;;;;13.75;8.00;;;0.20;99.90;;;;;;4906224;29;20217;-68
2022/03/10 05:39:18;;;;;;;16.10;8.20;;;0.20;99.90;;;;;;4912726;29;20657;-67
2022/03/10 05:41:45;;;;;;;17.33;9.07;;;0.20;99.90;;;;;;4911721;29;20726;-66
2022/03/10 05:44:11;;;;;;;11.75;7.82;;;0.20;99.90;;;;;;4912845;29;20266;-67
2022/03/10 05:46:38;;;;;;;11.70;7.55;;;0.20;99.90;;;;;;4913159;29;20206;-68
2022/03/10 05:49:05;;;;;;;11.32;8.55;;;0.20;99.90;;;;;;4912459;29;20263;-68
2022/03/10 05:51:32;;;;;;;13.50;8.73;;;0.20;99.90;;;;;;4912352;29;20640;-68
2022/03/10 05:54:01;;;;;;;13.35;8.93;;;0.20;99.90;;;;;;4912607;29;20215;-67
2022/03/10 05:56:27;;;;;;;15.18;8.95;;;0.20;99.90;;;;;;4913230;29;20211;-68
2022/03/10 05:58:54;;;;;;;18.73;9.90;;;0.20;99.90;;;;;;4913506;29;20206;-68
2022/03/10 06:01:21;;;;;;;17.10;10.93;;;0.20;99.90;;;;;;4912760;29;20245;-68
2022/03/10 06:03:47;;;;;;;15.65;10.48;;;0.20;99.90;;;;;;4912977;29;20211;-67
2022/03/10 06:06:14;;;;;;;13.43;8.23;;;0.30;99.90;;;;;;4911009;29;20223;-66
2022/03/10 06:08:42;;;;;;;14.02;8.75;;;0.30;99.90;;;;;;4896497;29;20317;-70
2022/03/10 06:11:11;;;;;;;12.02;8.45;;;0.30;99.90;;;;;;4907325;29;20230;-68
2022/03/10 06:13:38;;;;;;;11.65;8.65;;;0.30;99.90;;;;;;4913118;29;20230;-68
2022/03/10 06:16:05;;;;;;;14.07;10.10;;;0.30;99.90;;;;;;4915067;29;20210;-68
2022/03/10 06:18:32;;;;;;;13.85;9.82;;;0.30;99.90;;;;;;4911977;29;20282;-67
2022/03/10 06:20:59;;;;;;;11.77;8.75;;;0.40;99.90;;;;;;4915054;29;20238;-68
2022/03/10 06:23:26;;;;;;;12.10;8.50;;;0.40;99.90;;;;;;4903969;29;20215;-68
2022/03/10 06:25:52;;;;;;;13.23;8.85;;;0.40;99.90;;;;;;4909607;29;20239;-68
2022/03/10 06:28:20;;;;;;;13.48;9.48;;;0.50;99.90;;;;;;4916400;29;20695;-69
2022/03/10 06:30:47;;;;;;;12.95;9.60;;;0.50;99.90;;;;;;4913218;29;20239;-68
2022/03/10 06:33:14;;;;;;;11.65;9.48;;;0.60;99.90;;;;;;4912577;29;20207;-67
2022/03/10 06:35:41;;;;;;;13.77;9.80;;;0.60;99.90;;;;;;4912394;29;20211;-68
2022/03/10 06:38:08;;;;;;;11.18;9.90;;;0.70;99.90;;;;;;4914150;29;20235;-68
2022/03/10 06:40:35;;;;;;;14.35;11.05;;;0.80;99.90;;;;;;4915238;29;20227;-68
2022/03/10 06:43:01;;;;;;;15.07;9.30;;;0.80;99.90;;;;;;4917756;29;20278;-68
2022/03/10 06:45:29;;;;;;;14.00;9.27;;;0.90;99.90;;;;;;4917961;29;20206;-68
2022/03/10 06:47:56;;;;;;;19.58;10.88;;;1.00;99.90;;;;;;4917460;29;20231;-67
2022/03/10 06:50:23;;;;;;;12.63;10.13;;;1.10;99.90;;;;;;4915131;29;20215;-67
2022/03/10 06:52:51;;;;;;;14.65;10.13;;;1.20;99.90;;;;;;4908193;29;20243;-68
2022/03/10 06:55:19;;;;;;;16.92;10.52;;;1.30;99.90;;;;;;4901861;29;20206;-68
2022/03/10 06:57:45;;;;;;;13.57;10.55;;;1.40;99.90;;;;;;4915958;29;20217;-68
2022/03/10 07:00:13;;;;;;;16.10;12.73;;;1.50;99.90;;;;;;4912925;29;20290;-68
2022/03/10 07:02:41;;;;;;;14.93;11.60;;;1.50;99.90;;;;;;4911827;29;20255;-67
2022/03/10 07:05:08;;;;;;;23.15;14.98;;;1.60;99.90;;;;;;4899062;29;20671;-69
2022/03/10 07:07:35;;;;;;;21.23;13.73;;;1.70;99.90;;;;;;4913979;29;20294;-68
2022/03/10 07:10:02;;;;;;;15.18;9.18;;;1.80;99.90;;;;;;4914645;29;20211;-68
2022/03/10 07:12:29;;;;;;;11.70;9.32;;;1.90;99.90;;;;;;4901750;29;20231;-68
2022/03/10 07:14:56;;;;;;;12.88;9.73;;;1.90;99.90;;;;;;4915333;29;20218;-69
2022/03/10 07:17:22;;;;;;;13.95;9.30;;;2.00;99.90;;;;;;4899368;29;20250;-68
2022/03/10 07:19:50;;;;;;;15.57;9.25;;;2.00;99.90;;;;;;4895682;29;20215;-67
2022/03/10 07:22:19;;;;;;;11.85;8.45;;;2.10;99.90;;;;;;4910654;29;20222;-67
2022/03/10 07:24:45;;;;;;;13.43;8.68;;;2.20;99.90;;;;;;4909577;29;20253;-68
2022/03/10 07:27:12;;;;;;;14.32;8.88;;;2.30;99.90;;;;;;4909416;29;20213;-68
2022/03/10 07:29:39;;;;;;;11.55;8.32;;;2.40;99.90;;;;;;4902556;29;20298;-68
2022/03/10 07:32:07;;;;;;;13.60;8.48;;;2.40;99.90;;;;;;4908712;29;20318;-68
2022/03/10 07:34:34;;;;;;;10.30;9.32;;;2.50;99.90;;;;;;4913231;29;20214;-68
2022/03/10 07:37:02;;;;;;;15.98;10.13;;;2.70;99.90;;;;;;4909498;29;20210;-68
2022/03/10 07:39:29;;;;;;;12.77;8.60;;;2.80;99.90;;;;;;4901818;29;20283;-68
2022/03/10 07:41:56;;;;;;;9.50;8.45;;;3.00;99.90;;;;;;4907591;29;20599;-68
2022/03/10 07:44:23;;;;;;;12.80;8.77;;;3.10;99.90;;;;;;4908945;29;20668;-69
2022/03/10 07:46:50;;;;;;;11.68;7.95;;;3.30;99.90;;;;;;4908693;29;20203;-69
2022/03/10 07:49:17;;;;;;;10.93;7.47;;;3.40;99.90;;;;;;4910686;29;20222;-68
2022/03/10 07:51:44;;;;;;;7.95;7.15;;;3.50;99.90;;;;;;4911959;29;20219;-68
2022/03/10 07:54:12;;;;;;;12.40;7.95;;;3.70;99.90;;;;;;4913745;29;20238;-67
2022/03/10 07:56:39;;;;;;;10.25;7.45;;;3.90;99.90;;;;;;4912313;29;20289;-67
2022/03/10 07:59:05;;;;;;;11.48;9.05;;;4.10;99.90;;;;;;4912784;29;20206;-69
2022/03/10 08:01:32;;;;;;;9.50;7.82;;;4.20;99.90;;;;;;4903051;29;20329;-69
2022/03/10 08:03:59;;;;;;;10.60;8.43;;;4.30;99.90;;;;;;4909324;29;20625;-67
2022/03/10 08:06:27;;;;;;;11.65;8.55;;;4.50;99.90;;;;;;4913572;29;20206;-69
2022/03/10 08:08:54;;;;;;;9.90;8.77;;;4.50;99.90;;;;;;4914196;29;20872;-68
2022/03/10 08:11:22;;;;;;;10.77;7.43;;;4.50;99.90;;;;;;4913676;29;20222;-69
2022/03/10 08:13:48;;;;;;;12.45;9.30;;;4.60;99.90;;;;;;4914682;29;20207;-68
2022/03/10 08:16:16;;;;;;;6.85;5.10;;;4.70;99.90;;;;;;4914041;29;20657;-69
2022/03/10 08:18:44;;;;;;;9.82;7.85;;;4.90;99.90;;;;;;4914352;29;20669;-68
2022/03/10 08:21:11;;;;;;;9.82;7.18;;;5.00;99.90;;;;;;4910823;29;20735;-69
2022/03/10 08:23:38;;;;;;;8.73;7.38;;;5.20;99.90;;;;;;4914048;29;20298;-69
2022/03/10 08:26:05;;;;;;;9.25;6.95;;;5.30;99.90;;;;;;4913926;29;20297;-67
2022/03/10 08:28:34;;;;;;;8.38;7.22;;;5.40;99.90;;;;;;4913684;29;20228;-68
2022/03/10 08:31:01;;;;;;;16.05;8.73;;;5.50;99.90;;;;;;4910027;29;20629;-67
2022/03/10 08:33:28;;;;;;;11.77;7.22;;;5.60;99.90;;;;;;4909563;29;20213;-66
2022/03/10 08:35:55;;;;;;;7.43;6.50;;;5.70;99.90;;;;;;4906777;29;20237;-68
2022/03/10 08:38:22;;;;;;;8.55;7.63;;;5.80;99.90;;;;;;4907658;29;20638;-67
2022/03/10 08:40:48;;;;;;;8.30;5.63;;;6.00;99.90;;;;;;4906465;29;20226;-68
2022/03/10 08:43:15;;;;;;;10.27;7.63;;;6.20;99.90;;;;;;4913774;29;20213;-68
2022/03/10 08:45:43;;;;;;;10.05;7.22;;;6.30;99.90;;;;;;4909261;29;20233;-68
2022/03/10 08:48:10;;;;;;;7.68;5.68;;;6.40;99.90;;;;;;4913361;29;20262;-68
2022/03/10 08:50:38;;;;;;;11.27;5.93;;;6.50;99.90;;;;;;4911910;29;20277;-68
2022/03/10 08:53:05;;;;;;;4.30;3.80;;;6.70;99.90;;;;;;4912263;29;21842;-69
2022/03/10 08:55:32;;;;;;;9.65;7.85;;;6.90;99.90;;;;;;4911391;29;20537;-70
2022/03/10 08:58:00;;;;;;;9.23;8.30;;;7.00;99.90;;;;;;4912689;29;20466;-76
2022/03/10 09:00:27;;;;;;;7.78;7.07;;;7.10;99.90;;;;;;4912536;29;20466;-69
2022/03/10 09:02:55;;;;;;;5.70;5.25;;;7.20;99.90;;;;;;4913878;29;20800;-70
2022/03/10 09:05:21;;;;;;;5.47;4.97;;;7.30;99.90;;;;;;4913507;29;20246;-70
2022/03/10 09:07:48;;;;;;;4.90;3.60;;;7.40;99.90;;;;;;4914120;29;20609;-69
2022/03/10 09:10:15;;;;;;;5.57;5.05;;;7.50;99.90;;;;;;4911958;29;20234;-69
2022/03/10 09:12:42;;;;;;;10.00;7.80;;;7.60;99.90;;;;;;4902053;29;20211;-69
2022/03/10 09:15:10;;;;;;;9.60;7.78;;;7.70;99.90;;;;;;4894771;29;20235;-69
2022/03/10 09:17:37;;;;;;;10.10;8.20;;;7.80;99.90;;;;;;4894659;29;20285;-71
2022/03/10 09:20:07;;;;;;;7.20;5.78;;;7.80;99.90;;;;;;4894269;29;20211;-70
2022/03/10 09:22:34;;;;;;;8.15;6.45;;;8.00;99.90;;;;;;4895309;29;20250;-71
2022/03/10 09:25:02;;;;;;;7.65;6.95;;;8.00;99.90;;;;;;4912837;29;20213;-68
2022/03/10 09:27:29;;;;;;;6.15;5.63;;;8.10;99.90;;;;;;4914267;29;20218;-71
2022/03/10 09:29:55;;;;;;;14.27;6.88;;;8.20;99.90;;;;;;4912942;29;20723;-68
2022/03/10 09:32:23;;;;;;;10.55;7.65;;;8.30;99.90;;;;;;4913626;29;20644;-69
2022/03/10 09:34:49;;;;;;;7.30;6.28;;;8.40;99.90;;;;;;4913649;29;20210;-69
2022/03/10 09:37:17;;;;;;;6.85;6.25;;;8.50;99.90;;;;;;4913414;29;20356;-68
2022/03/10 09:39:44;;;;;;;6.78;5.28;;;8.60;99.90;;;;;;4912082;29;20305;-70
2022/03/10 09:42:13;;;;;;;10.85;7.40;;;8.60;99.90;;;;;;4912176;29;20707;-66
2022/03/10 09:44:43;;;;;;;7.70;6.32;;;8.70;99.90;;;;;;4905342;29;20234;-69
2022/03/10 09:47:09;;;;;;;7.70;6.97;;;8.90;99.90;;;;;;4913488;29;20237;-69
2022/03/10 09:49:36;;;;;;;8.57;6.93;;;9.00;99.90;;;;;;4913269;29;20279;-68
2022/03/10 09:52:04;;;;;;;10.27;6.80;;;9.10;99.90;;;;;;4916962;29;20234;-69
2022/03/10 09:54:32;;;;;;;7.10;6.47;;;9.20;99.90;;;;;;4916445;29;20207;-69
2022/03/10 09:56:59;;;;;;;4.72;4.43;;;9.30;99.90;;;;;;4916324;29;20261;-69
2022/03/10 09:59:27;;;;;;;8.10;7.18;;;9.40;99.90;;;;;;4916860;29;20210;-69
2022/03/10 10:01:55;;;;;;;6.65;6.05;;;9.40;99.90;;;;;;4904308;29;20316;-69
2022/03/10 10:04:22;;;;;;;6.72;6.03;;;9.50;99.90;;;;;;4897746;29;20211;-69
2022/03/10 10:07:02;;;;;;;8.45;6.50;;;9.50;99.90;;;;;;4897308;29;20295;-69
2022/03/10 10:09:44;;;;;;;7.25;6.55;;;9.70;99.90;;;;;;4897154;29;20262;-69
2022/03/10 10:12:13;;;;;;;6.78;6.13;;;9.80;99.90;;;;;;4907368;29;20343;-70
2022/03/10 10:14:41;;;;;;;9.80;6.70;;;9.80;99.90;;;;;;4916330;29;20210;-69
2022/03/10 10:17:08;;;;;;;8.18;5.97;;;9.80;99.90;;;;;;4916374;29;20234;-69
2022/03/10 10:19:35;;;;;;;6.93;5.88;;;9.90;99.90;;;;;;4915621;29;20211;-68
2022/03/10 10:22:13;;;;;;;6.53;5.75;;;10.00;99.90;;;;;;4915915;29;20615;-69
2022/03/10 10:24:49;;;;;;;9.30;6.32;;;10.10;99.90;;;;;;4916054;29;20242;-69
2022/03/10 10:27:17;;;;;;;5.18;4.70;;;10.10;99.90;;;;;;4916028;29;20210;-68
2022/03/10 10:29:52;;;;;;;8.50;6.30;;;10.10;99.90;;;;;;4915439;29;20289;-69
2022/03/10 10:32:27;;;;;;;5.60;5.07;;;10.20;99.90;;;;;;4918549;29;20237;-70
2022/03/10 10:35:01;;;;;;;4.72;4.32;;;10.30;99.90;;;;;;4899685;29;20206;-69
2022/03/10 10:37:29;;;;;;;10.27;7.03;;;10.30;99.80;;;;;;4897600;29;20620;-69
2022/03/10 10:39:58;;;;;;;9.43;5.43;;;10.30;99.90;;;;;;4896119;29;20210;-69
2022/03/10 10:42:29;;;;;;;5.30;4.80;;;10.30;99.90;;;;;;4897172;29;20235;-69
2022/03/10 10:44:58;;;;;;;7.10;5.72;;;10.40;99.30;;;;;;4909198;29;20226;-69
2022/03/10 10:47:26;;;;;;;6.78;5.88;;;10.50;99.20;;;;;;4908444;29;20211;-69
2022/03/10 10:50:05;;;;;;;6.20;5.43;;;10.40;98.70;;;;;;4915557;29;20692;-68
2022/03/10 10:52:39;;;;;;;6.90;6.20;;;10.50;99.20;;;;;;4918272;29;20643;-69
2022/03/10 10:55:10;;;;;;;7.18;5.90;;;10.60;98.40;;;;;;4919330;29;20217;-70
2022/03/10 10:57:38;;;;;;;8.20;6.25;;;10.60;97.90;;;;;;4916123;29;20211;-69
2022/03/10 11:00:10;;;;;;;5.55;5.05;;;10.70;97.30;;;;;;4915050;29;20247;-69
2022/03/10 11:02:42;;;;;;;9.07;7.60;;;10.70;97.40;;;;;;4914589;29;20222;-70
2022/03/10 11:05:11;;;;;;;7.88;6.80;;;10.80;97.50;;;;;;4914210;29;20266;-70
2022/03/10 11:07:39;;;;;;;6.72;6.00;;;10.90;97.00;;;;;;4915247;29;20285;-71
2022/03/10 11:10:08;;;;;;;13.23;6.90;;;10.90;96.80;;;;;;4912511;29;20222;-69
2022/03/10 11:12:39;;;;;;;8.52;7.70;;;10.90;96.80;;;;;;4904517;29;20235;-68
2022/03/10 11:15:07;;;;;;;8.65;7.63;;;10.90;96.10;;;;;;4912286;29;20634;-69
2022/03/10 11:17:34;;;;;;;10.02;7.15;;;10.90;96.00;;;;;;4914653;29;20297;-71
2022/03/10 11:20:03;;;;;;;4.43;4.03;;;10.80;95.80;;;;;;4909377;29;20203;-69
2022/03/10 11:22:40;;;;;;;7.32;6.60;;;10.80;95.30;;;;;;4910904;29;20228;-69
2022/03/10 11:25:18;;;;;;;6.40;5.80;;;10.70;95.20;;;;;;4913897;29;20214;-70
2022/03/10 11:27:51;;;;;;;8.70;7.60;;;10.80;95.70;;;;;;4915361;29;20261;-70
2022/03/10 11:30:18;;;;;;;15.23;8.68;;;10.80;95.40;;;;;;4913135;29;20248;-70
2022/03/10 11:33:00;;;;;;;10.13;7.20;;;10.90;95.30;;;;;;4913414;29;20215;-69
2022/03/10 11:35:31;;;;;;;8.63;6.70;;;11.00;94.60;;;;;;4909220;29;20207;-70
2022/03/10 11:37:58;;;;;;;12.07;9.13;;;11.00;94.10;;;;;;4903554;29;20286;-69
2022/03/10 11:40:44;;;;;;;9.98;5.93;;;11.00;94.60;;;;;;4908371;29;20524;-70
2022/03/10 11:43:11;;;;;;;10.48;8.82;;;11.10;94.40;;;;;;4905111;29;20648;-69
2022/03/10 11:45:39;;;;;;;8.40;6.88;;;11.10;93.60;;;;;;4904768;29;20203;-69
2022/03/10 11:48:37;;;;;;;10.30;7.32;;;11.10;93.50;;;;;;4905738;29;20748;-69
2022/03/10 11:51:19;;;;;;;6.30;5.75;;;11.20;93.40;;;;;;4907541;29;20642;-68
2022/03/10 11:54:05;;;;;;;10.25;9.20;;;11.30;93.70;;;;;;4915745;29;20218;-68
2022/03/10 11:56:58;;;;;;;10.75;7.60;;;11.30;93.80;;;;;;4916358;29;20265;-69
2022/03/10 11:59:27;;;;;;;10.40;4.80;;;11.30;93.40;;;;;;4917055;29;20210;-70
2022/03/10 12:01:55;;;;;;;8.55;7.65;;;11.30;92.90;;;;;;4899718;29;20270;-69
2022/03/10 12:04:22;;;;;;;10.85;8.13;;;11.30;93.00;;;;;;4913394;29;20241;-70
2022/03/10 12:06:55;;;;;;;10.68;7.60;;;11.30;93.40;;;;;;4922785;29;20237;-70
2022/03/10 12:09:27;;;;;;;8.48;6.85;;;11.30;93.00;;;;;;4920666;29;20311;-70
2022/03/10 12:11:55;;;;;;;10.63;7.95;;;11.40;93.20;;;;;;4938787;29;20206;-69
2022/03/10 12:14:27;;;;;;;8.82;8.02;;;11.40;93.50;;;;;;4931340;29;20202;-68
2022/03/10 12:16:53;;;;;;;9.38;6.55;;;11.40;92.70;;;;;;4931320;29;20215;-69
2022/03/10 12:19:20;;;;;;;9.65;6.07;;;11.50;92.60;;;;;;4939506;29;20258;-69
2022/03/10 12:21:47;;;;;;;6.75;5.75;;;11.60;91.80;;;;;;4939064;29;20218;-68
2022/03/10 12:24:14;;;;;;;9.82;7.65;;;11.60;92.20;;;;;;4940418;29;20187;-69
2022/03/10 12:26:43;;;;;;;11.25;7.60;;;11.50;92.20;;;;;;4940454;29;20281;-68
2022/03/10 12:29:13;;;;;;;8.18;6.30;;;11.60;91.60;;;;;;4940359;29;20191;-69
2022/03/10 12:31:42;;;;;;;7.57;4.15;;;11.60;91.30;;;;;;4939964;29;20222;-68
2022/03/10 12:34:17;;;;;;;7.82;6.00;;;11.60;91.40;;;;;;5085378;27;20558;-69
2022/03/10 12:36:49;;;;;;;6.72;6.05;;;11.50;91.70;;;;;;5083943;28;20204;-69
2022/03/10 12:39:18;;;;;;;6.97;5.30;;;11.60;92.10;;;;;;5092628;28;20283;-68
2022/03/10 12:41:48;;;;;;;11.77;6.30;;;11.50;91.60;;;;;;5073463;28;20339;-68
2022/03/10 12:44:18;;;;;;;7.38;6.25;;;11.60;91.60;;;;;;5066506;28;20205;-68
2022/03/10 12:46:45;;;;;;;10.70;6.82;;;11.70;91.70;;;;;;5065742;28;20201;-68
2022/03/10 12:49:23;;;;;;;9.30;7.05;;;11.70;91.00;;;;;;5065928;28;20258;-68
2022/03/10 12:51:51;;;;;;;8.75;7.45;;;11.70;91.50;;;;;;5064529;28;20221;-68
2022/03/10 12:54:18;;;;;;;8.77;6.65;;;11.70;91.40;;;;;;5065730;28;20362;-67
2022/03/10 12:56:47;;;;;;;8.63;6.45;;;11.70;91.20;;;;;;5065806;28;20197;-69
2022/03/10 12:59:15;;;;;;;8.70;6.35;;;11.80;90.90;;;;;;5064239;28;20257;-70
2022/03/10 13:01:42;;;;;;;6.40;4.47;;;11.80;91.00;;;;;;5057025;28;20275;-67
2022/03/10 13:04:13;;;;;;;8.68;7.35;;;11.70;91.30;;;;;;5061273;28;20202;-68
2022/03/10 13:06:42;;;;;;;8.82;6.70;;;11.70;91.40;;;;;;5062970;28;20686;-69
2022/03/10 13:09:09;;;;;;;9.00;6.95;;;11.70;91.70;;;;;;5064904;28;20209;-71
2022/03/10 13:11:38;;;;;;;5.38;4.88;;;11.80;91.90;;;;;;5057576;28;20374;-69
2022/03/10 13:14:09;;;;;;;5.40;4.55;;;12.00;91.80;;;;;;5064666;28;20288;-69
2022/03/10 13:16:39;;;;;;;8.63;6.78;;;12.00;89.50;;;;;;5049239;28;20213;-68
2022/03/10 13:19:06;;;;;;;6.80;6.20;;;12.00;89.70;;;;;;5045480;28;20213;-68
2022/03/10 13:21:33;;;;;;;5.93;5.35;;;11.90;90.50;;;;;;5057589;28;20753;-70
2022/03/10 13:24:01;;;;;;;6.65;6.03;;;11.90;90.50;;;;;;5063776;28;20259;-69
2022/03/10 13:26:28;;;;;;;6.53;5.50;;;11.90;90.30;;;;;;5062542;28;20225;-68
2022/03/10 13:28:55;;;;;;;5.35;4.80;;;12.00;89.40;;;;;;5064705;28;20286;-69
2022/03/10 13:31:29;;;;;;;6.15;5.57;;;12.00;89.20;;;;;;5062483;28;20225;-68
2022/03/10 13:33:57;;;;;;;14.43;6.15;;;12.10;89.90;;;;;;5064463;28;20217;-68
2022/03/10 13:36:25;;;;;;;4.75;4.28;;;12.10;90.20;;;;;;5052029;28;20198;-69
2022/03/10 13:38:52;;;;;;;8.60;5.90;;;12.00;90.00;;;;;;5052912;28;20248;-70
2022/03/10 13:41:20;;;;;;;10.23;6.82;;;12.00;90.30;;;;;;5053452;28;20280;-70
2022/03/10 13:43:46;;;;;;;8.98;6.72;;;12.00;89.80;;;;;;5048358;28;20205;-69
2022/03/10 13:46:16;;;;;;;12.57;9.60;;;12.10;90.40;;;;;;5041656;28;20305;-69
2022/03/10 13:48:50;;;;;;;7.97;6.95;;;12.10;90.70;;;;;;5045260;28;20201;-68
2022/03/10 13:51:19;;;;;;;12.40;9.55;;;12.10;90.60;;;;;;5049369;28;20832;-71
2022/03/10 13:53:56;;;;;;;10.18;6.97;;;12.20;90.80;;;;;;5051858;28;20221;-69
2022/03/10 13:56:37;;;;;;;7.32;6.75;;;12.20;90.90;;;;;;5052006;28;20208;-69
2022/03/10 13:59:07;;;;;;;6.25;5.65;;;12.10;90.20;;;;;;5051096;28;20225;-68
2022/03/10 14:01:36;;;;;;;6.57;5.15;;;12.10;90.20;;;;;;5045698;28;20395;-68
2022/03/10 14:04:09;;;;;;;11.55;7.07;;;12.00;90.40;;;;;;5050825;28;20717;-66
2022/03/10 14:06:42;;;;;;;6.22;5.70;;;12.00;90.90;;;;;;5051009;28;20619;-68
2022/03/10 14:09:18;;;;;;;7.85;4.75;;;12.10;90.90;;;;;;5050669;28;20221;-67
2022/03/10 14:11:46;;;;;;;5.55;5.10;;;12.00;90.40;;;;;;5050466;28;20226;-66
2022/03/10 14:14:13;;;;;;;5.88;5.35;;;12.00;90.70;;;;;;5050856;28;20320;-67
2022/03/10 14:16:50;;;;;;;5.38;4.97;;;12.00;91.00;;;;;;5051189;28;20309;-66
2022/03/10 14:19:21;;;;;;;6.30;5.70;;;12.00;90.20;;;;;;5050744;28;20297;-67
2022/03/10 14:21:50;;;;;;;5.20;4.70;;;12.00;90.00;;;;;;5049610;28;20313;-66
2022/03/10 14:24:25;;;;;;;8.75;5.82;;;12.00;89.80;;;;;;5050772;28;20210;-67
2022/03/10 14:26:53;;;;;;;7.35;6.65;;;12.00;90.00;;;;;;5050696;28;20301;-66
2022/03/10 14:29:21;;;;;;;5.25;4.75;;;12.00;90.50;;;;;;5050764;28;20205;-67
2022/03/10 14:31:47;;;;;;;6.75;4.70;;;12.00;90.00;;;;;;5050020;28;20694;-66
2022/03/10 14:34:15;;;;;;;5.57;4.90;;;12.10;90.10;;;;;;5044877;28;20568;-66
2022/03/10 14:36:45;;;;;;;4.85;4.22;;;12.00;90.20;;;;;;5046622;28;20288;-66
2022/03/10 14:39:11;;;;;;;5.20;4.72;;;12.00;90.50;;;;;;5049795;28;20202;-67
2022/03/10 14:41:39;;;;;;;8.55;6.95;;;12.00;91.00;;;;;;5050211;28;20222;-68
2022/03/10 14:44:10;;;;;;;8.02;6.28;;;13.10;92.50;;;;;;5050169;28;20674;-66
2022/03/10 14:46:37;;;;;;;5.38;4.88;;;12.00;91.70;;;;;;5049966;28;20573;-66
2022/03/10 14:49:05;;;;;;;4.20;3.53;;;12.10;91.90;;;;;;5050821;28;20267;-67
2022/03/10 14:51:32;;;;;;;5.50;4.80;;;12.00;92.10;;;;;;5050000;28;20299;-66
2022/03/10 14:54:01;;;;;;;6.90;6.05;;;12.00;92.50;;;;;;5050909;28;20616;-66
2022/03/10 14:56:28;;;;;;;5.85;5.20;;;11.90;92.70;;;;;;5050139;28;20198;-66
2022/03/10 14:58:55;;;;;;;5.05;4.68;;;11.80;93.40;;;;;;5050047;28;20567;-67
2022/03/10 15:01:23;;;;;;;5.10;4.53;;;11.80;93.80;;;;;;5049612;28;20230;-66
2022/03/10 15:03:50;;;;;;;7.50;5.90;;;11.80;94.40;;;;;;5049723;28;20824;-66
2022/03/10 15:06:16;;;;;;;9.32;5.88;;;11.80;95.00;;;;;;5049858;28;20210;-66
2022/03/10 15:08:43;;;;;;;6.35;4.18;;;11.80;95.50;;;;;;5044894;28;20244;-66
2022/03/10 15:11:10;;;;;;;8.27;6.30;;;11.70;95.80;;;;;;5029472;28;20635;-66
2022/03/10 15:13:37;;;;;;;6.88;6.18;;;11.60;96.40;;;;;;5036581;28;20223;-66
2022/03/10 15:16:04;;;;;;;10.05;6.80;;;11.60;96.80;;;;;;5048877;28;20205;-66
2022/03/10 15:18:32;;;;;;;8.70;5.30;;;11.60;97.30;;;;;;5049575;28;20283;-66
2022/03/10 15:20:59;;;;;;;10.13;6.10;;;11.60;97.60;;;;;;5049182;28;20396;-66
2022/03/10 15:23:25;;;;;;;5.88;5.00;;;11.60;97.90;;;;;;5042496;28;20203;-66
2022/03/10 15:25:52;;;;;;;6.20;5.57;;;11.60;98.10;;;;;;5054460;28;20202;-67
2022/03/10 15:28:19;;;;;;;6.90;6.20;;;11.60;97.80;;;;;;5041847;28;20210;-67
2022/03/10 15:30:46;;;;;;;7.03;5.95;;;11.60;97.90;;;;;;5049439;28;20232;-66
2022/03/10 15:33:13;;;;;;;8.48;7.40;;;11.70;98.20;;;;;;5049559;28;20316;-67
2022/03/10 15:35:42;;;;;;;6.05;5.07;;;11.70;98.40;;;;;;5049594;28;20221;-66
2022/03/10 15:38:09;;;;;;;7.78;5.97;;;11.60;98.30;;;;;;5049859;28;20221;-67
2022/03/10 15:40:36;;;;;;;6.82;6.00;;;11.60;98.60;;;;;;5042389;28;20305;-67
2022/03/10 15:43:05;;;;;;;7.30;6.60;;;11.60;98.70;;;;;;5048347;28;20230;-66
2022/03/10 15:45:32;;;;;;;8.35;6.45;;;11.50;98.90;;;;;;5029782;28;20637;-67
2022/03/10 15:48:00;;;;;;;7.90;6.95;;;11.50;99.50;;;;;;5043998;28;20197;-67
2022/03/10 15:50:27;;;;;;;7.82;6.38;;;11.50;99.80;;;;;;5047762;28;20194;-67
2022/03/10 15:52:56;;;;;;;13.55;7.28;;;11.50;99.90;;;;;;5048282;28;20206;-68
2022/03/10 15:55:22;;;;;;;9.05;5.90;;;11.40;99.90;;;;;;5049390;28;20236;-67
2022/03/10 15:57:51;;;;;;;6.55;4.75;;;11.40;99.90;;;;;;5046244;28;20204;-67
2022/03/10 16:00:18;;;;;;;8.13;6.00;;;11.40;99.90;;;;;;5047811;28;20206;-67
2022/03/10 16:02:46;;;;;;;5.97;5.38;;;11.30;99.90;;;;;;5044059;28;20312;-67
2022/03/10 16:05:14;;;;;;;5.28;4.78;;;11.30;99.90;;;;;;5045209;28;20240;-66
2022/03/10 16:07:43;;;;;;;8.38;6.40;;;11.20;99.90;;;;;;5047635;28;20206;-68
2022/03/10 16:10:13;;;;;;;10.02;6.03;;;11.20;99.90;;;;;;5039862;28;20638;-65
2022/03/10 16:12:41;;;;;;;10.60;6.68;;;11.10;99.90;;;;;;5047372;28;20230;-69
2022/03/10 16:15:09;;;;;;;5.75;5.25;;;11.10;99.90;;;;;;5041469;28;20295;-66
2022/03/10 16:17:35;;;;;;;12.05;4.80;;;11.10;99.90;;;;;;5047427;28;20202;-66
2022/03/10 16:20:03;;;;;;;12.70;7.28;;;11.00;99.90;;;;;;5039803;28;20229;-67
2022/03/10 16:22:29;;;;;;;7.55;6.85;;;11.00;99.90;;;;;;5042990;28;20792;-66
2022/03/10 16:24:57;;;;;;;6.60;5.82;;;10.90;99.90;;;;;;5045123;28;20610;-66
2022/03/10 16:27:25;;;;;;;8.95;7.50;;;10.90;99.90;;;;;;5045050;28;20202;-66
2022/03/10 16:29:52;;;;;;;11.52;7.07;;;10.80;99.90;;;;;;5045835;28;20208;-68
2022/03/10 16:32:19;;;;;;;5.30;4.90;;;10.70;99.90;;;;;;5047534;28;20279;-67
2022/03/10 16:34:45;;;;;;;8.98;6.28;;;10.60;99.90;;;;;;5048451;28;20221;-67
2022/03/10 16:37:12;;;;;;;8.52;7.32;;;10.60;99.90;;;;;;5037556;28;20206;-68
2022/03/10 16:39:39;;;;;;;7.90;6.80;;;10.50;99.90;;;;;;5037062;28;20368;-67
2022/03/10 16:42:07;;;;;;;14.90;6.70;;;10.40;99.90;;;;;;5048435;28;20225;-68
2022/03/10 16:44:35;;;;;;;7.30;5.82;;;10.40;99.90;;;;;;5045090;28;20981;-68
2022/03/10 16:47:03;;;;;;;6.68;6.10;;;10.30;99.90;;;;;;5038121;28;20198;-65
2022/03/10 16:49:30;;;;;;;9.25;4.93;;;10.30;99.90;;;;;;5047509;28;20205;-67
2022/03/10 16:51:57;;;;;;;8.18;5.80;;;10.20;99.90;;;;;;5041555;28;20241;-66
2022/03/10 16:54:24;;;;;;;9.98;6.50;;;10.20;99.90;;;;;;5049111;28;20209;-66
2022/03/10 16:56:51;;;;;;;11.15;7.72;;;10.10;99.90;;;;;;5049594;28;20209;-66
2022/03/10 16:59:17;;;;;;;9.98;6.78;;;10.10;99.90;;;;;;5048243;28;20197;-67
2022/03/10 17:01:45;;;;;;;10.43;6.55;;;9.90;99.90;;;;;;5047701;28;20237;-67
2022/03/10 17:04:12;;;;;;;9.80;6.75;;;9.90;99.90;;;;;;5048173;28;20197;-67
2022/03/10 17:06:39;;;;;;;9.05;7.65;;;9.90;99.90;;;;;;5053561;28;20208;-66
2022/03/10 17:09:06;;;;;;;10.02;7.13;;;9.80;99.90;;;;;;5047942;28;20201;-67
2022/03/10 17:11:34;;;;;;;11.40;7.93;;;9.70;99.90;;;;;;5046834;28;20570;-67
2022/03/10 17:14:01;;;;;;;10.73;7.55;;;9.60;99.90;;;;;;5047394;28;20587;-66
2022/03/10 17:16:28;;;;;;;12.98;8.77;;;9.60;99.90;;;;;;5045102;28;20206;-67
2022/03/10 17:18:56;;;;;;;9.43;8.20;;;9.50;99.90;;;;;;5047441;28;20715;-68
2022/03/10 17:21:25;;;;;;;8.80;7.90;;;9.40;99.90;;;;;;5050686;28;20225;-68
2022/03/10 17:23:52;;;;;;;16.60;8.93;;;9.40;99.90;;;;;;5049978;28;20240;-68
2022/03/10 17:26:19;;;;;;;9.63;7.82;;;9.40;99.90;;;;;;5051978;28;20278;-68
2022/03/10 17:28:45;;;;;;;9.43;7.88;;;9.30;99.90;;;;;;5051790;28;20281;-68
2022/03/10 17:31:13;;;;;;;8.48;7.35;;;9.30;99.90;;;;;;5050662;28;20275;-67
2022/03/10 17:33:39;;;;;;;12.10;9.25;;;9.20;99.90;;;;;;5051357;28;20217;-68
2022/03/10 17:36:08;;;;;;;17.15;9.07;;;9.10;99.90;;;;;;5050997;28;20221;-67
2022/03/10 17:38:36;;;;;;;12.80;10.13;;;9.10;99.90;;;;;;5046836;28;20301;-67
2022/03/10 17:41:03;;;;;;;12.80;9.52;;;9.00;99.90;;;;;;5047292;28;20236;-67
2022/03/10 17:43:30;;;;;;;10.10;8.13;;;9.00;99.90;;;;;;5050497;28;20212;-67
2022/03/10 17:45:56;;;;;;;14.30;10.93;;;8.90;99.90;;;;;;5051130;28;20789;-67
2022/03/10 17:48:23;;;;;;;12.48;8.98;;;8.90;99.90;;;;;;5048534;28;20210;-66
2022/03/10 17:50:50;;;;;;;15.30;9.30;;;8.90;99.90;;;;;;5048306;28;20233;-68
2022/03/10 17:53:18;;;;;;;17.27;12.32;;;8.80;99.90;;;;;;5044122;28;20211;-66
2022/03/10 17:55:45;;;;;;;19.67;12.00;;;8.80;99.90;;;;;;5050416;28;20746;-66